UKHH

Kharkiv International Airport

Kharkiv, Ukraine
TAF AMD UKHH 260216Z 2603/2612 18003MPS 9999 SCT020CB BKN025 TEMPO 2603/2609 20005G11MPS 2100 -SHRA BKN007 BKN020CB PROB40 TEMPO 2603/2609 -TSRA TEMPO 2609/2612 27009G16MPS 2100 -TSRAGR SQ BKN007 BKN020CB
Issued Valid From Valid To
Apr-26 @ 02:16 UTC
(an hour ago)
Apr-26 @ 03:00 UTC
(41 minutes ago)
Apr-26 @ 12:00 UTC
(in 8 hours)
Apr-26 @ 03:00 to Apr-26 @ 12:00
TAF AMD UKHH 260216Z 2603/2612 18003MPS 9999 SCT020CB BKN025
Wind Visibility Clouds
180° at 6 knots 10,000+ meters
  • Scattered at 2,000' AGL
  • Broken at 2,500' AGL
Temporary Apr-26 @ 03:00 to Apr-26 @ 09:00
TEMPO 2603/2609 20005G11MPS 2100 -SHRA BKN007 BKN020CB
Wind Visibility Clouds Conditions
200° at 10 knots
 Gusting to 21 knots
2,092 meters
  • Broken at 700' AGL
  • Broken at 2,000' AGL
  • Light Rain
Temporary  (Probability 40%) Apr-26 @ 03:00 to Apr-26 @ 09:00
PROB40 TEMPO 2603/2609 -TSRA
Conditions
  • Light Thunderstorm
  • Light Rain
Temporary Apr-26 @ 09:00 to Apr-26 @ 12:00
TEMPO 2609/2612 27009G16MPS 2100 -TSRAGR SQ BKN007 BKN020CB
Wind Visibility Clouds Conditions
270° at 17 knots
 Gusting to 31 knots
2,092 meters
  • Broken at 700' AGL
  • Broken at 2,000' AGL
  • Light Thunderstorm
  • Light Rain
  • Light Thunderstorm
  • Light Hail
  • Squalls
TAF AMD UKHH 260216Z 2603/2612 18003MPS 9999 SCT020CB BKN025 TEMPO 2603/2609 20005G11MPS 2100 -SHRA BKN007 BKN020CB PROB40 TEMPO 2603/2609 -TSRA TEMPO 2609/2612 27009G16MPS 2100 -TSRAGR SQ BKN007 BKN020CB
Issued Apr-26 @ 02:16 UTC
(an hour ago)
Valid From Apr-26 @ 03:00 UTC
(41 minutes ago)
Valid To Apr-26 @ 12:00 UTC
(in 8 hours)
Apr-26 @ 03:00 - Apr-26 @ 12:00
Wind Visibility
180° at 6 knots 10,000+ meters
Clouds
  • Scattered at 2,000' AGL
  • Broken at 2,500' AGL
Temporary Apr-26 @ 03:00 - Apr-26 @ 09:00
Wind Visibility
200° at 10 knots
 Gusting to 21 knots
2,092 meters
Clouds
  • Broken at 700' AGL
  • Broken at 2,000' AGL
Conditions
  • Light Rain
Probability 40% Temporary Apr-26 @ 03:00 - Apr-26 @ 09:00
Conditions
  • Light Thunderstorm
  • Light Rain
Temporary Apr-26 @ 09:00 - Apr-26 @ 12:00
Wind Visibility
270° at 17 knots
 Gusting to 31 knots
2,092 meters
Clouds
  • Broken at 700' AGL
  • Broken at 2,000' AGL
Conditions
  • Light Thunderstorm
  • Light Rain
  • Light Thunderstorm
  • Light Hail
  • Squalls